NORTHEAST SUFFOLK  -  Special Weather Statement Special Weather Statement        NORTHERN NASSAU  -  Special Weather Statement Special Weather Statement        NORTHWEST SUFFOLK  -  Special Weather Statement Special Weather Statement        SOUTHEAST SUFFOLK  -  Special Weather Statement Special Weather Statement        SOUTHERN NASSAU  -  Special Weather Statement Special Weather Statement        SOUTHWEST SUFFOLK  -  Special Weather Statement Special Weather Statement      

Active alerts

Northern Nassau
  Details for Northern Nassau Special Weather Statement
Southern Nassau
  Details for Southern Nassau Special Weather Statement
Northwest Suffolk
  Details for Northwest Suffolk Special Weather Statement
Southwest Suffolk
  Details for Southwest Suffolk Special Weather Statement
Northeast Suffolk
  Details for Northeast Suffolk Special Weather Statement
Southeast Suffolk
  Details for Southeast Suffolk Special Weather Statement


WXM80 ListenWXM80 Stop

You find our weather info also at:

UK Metoffice

WeatherCloud

Weather Underground

Northeastern Weather Network

AWEKAS

Citizen Weather Observer Program (CWOP)

HAMweather, WeatherForYou, PWS Weather


Weather Underground History page Text

Daily Summary for July 24, 2017 Units:  Metric    English   Both
« Previous Day
Next Day »
Daily Weekly Monthly Yearly Custom
  High: Low: Average:
Temperature: 21.5 °C 16.3 °C 18.7 °C
Dew Point: 19.8 °C 15.1 °C 17.4 °C
Humidity: 97 % 85 % 92 %
Wind Speed: 18.2 km/h 0 km/h 6.3 km/h
Wind Gust: 31.5 km/h - -
Wind:- - ENE
Pressure: 1013.1 hPa 1006 hPa -
Precipitation: 13.72 mm    
Historical Graphs
 
 
Tabular Data for July 24, 2017
Time Temperature Dew Point Pressure Wind Wind Speed Wind Gust Humidity Rainfall Rate (Hourly)
00:00 21.5 °C 18.9 °C 1010 hPa SE 0.6 km/h 5.6 km/h 85 % 0 mm
00:05 21.5 °C 18.9 °C 1010.4 hPa SE 0.3 km/h 3.7 km/h 85 % 0 mm
00:10 21.5 °C 18.9 °C 1010.4 hPa SE 0.5 km/h 5.6 km/h 85 % 0 mm
00:15 21.5 °C 18.9 °C 1010.4 hPa SE 1 km/h 3.7 km/h 85 % 0 mm
00:20 21.5 °C 19.1 °C 1010 hPa SE 0.2 km/h 1.9 km/h 86 % 0 mm
00:25 21.5 °C 19.1 °C 1010.4 hPa SE 0.5 km/h 3.7 km/h 86 % 0 mm
00:30 21.5 °C 19.2 °C 1010 hPa Calm     87 % 0 mm
00:35 21.5 °C 19.1 °C 1009.7 hPa SE 0.2 km/h 1.9 km/h 86 % 0 mm
00:40 21.5 °C 19.2 °C 1009.4 hPa SE 1.4 km/h 3.7 km/h 87 % 0 mm
00:45 21.4 °C 19.2 °C 1009.4 hPa SE 0.8 km/h 4.8 km/h 87 % 0 mm
00:50 21.4 °C 19.2 °C 1009.4 hPa SE 1.3 km/h 3.7 km/h 87 % 0 mm
00:55 21.4 °C 19.1 °C 1009.4 hPa SE 0.8 km/h 3.2 km/h 87 % 0 mm
01:00 21.4 °C 19.3 °C 1009 hPa SE 1.6 km/h 3.7 km/h 88 % 0 mm
01:05 21.4 °C 19.5 °C 1009 hPa SE 2.4 km/h 5.6 km/h 89 % 0 mm
01:10 21.4 °C 19.5 °C 1009 hPa SE 3.5 km/h 5.6 km/h 89 % 0 mm
01:15 21.4 °C 19.6 °C 1009 hPa East 2.9 km/h 7.4 km/h 89 % 0 mm
01:20 21.4 °C 19.6 °C 1009 hPa East 2.9 km/h 5.6 km/h 89 % 0 mm
01:25 21.4 °C 19.6 °C 1009 hPa East 2.3 km/h 3.7 km/h 89 % 0 mm
01:30 21.4 °C 19.6 °C 1009 hPa East 3.1 km/h 5.6 km/h 89 % 0 mm
01:35 21.4 °C 19.6 °C 1009 hPa East 3.4 km/h 5.6 km/h 89 % 0 mm
01:39 21.4 °C 19.6 °C 1009 hPa East 2.9 km/h 5.6 km/h 89 % 0 mm
01:44 21.5 °C 19.6 °C 1009 hPa ESE 1.9 km/h 3.7 km/h 89 % 0 mm
01:49 21.5 °C 19.6 °C 1009 hPa ESE 2.4 km/h 5.6 km/h 89 % 0 mm
01:54 21.5 °C 19.8 °C 1009 hPa East 2.6 km/h 5.6 km/h 90 % 0 mm
01:59 21.5 °C 19.8 °C 1009 hPa East 1.8 km/h 3.7 km/h 90 % 0 mm
02:04 21.4 °C 19.7 °C 1009 hPa East 1.3 km/h 3.7 km/h 90 % 0 mm
02:09 21.4 °C 19.7 °C 1009 hPa East 1 km/h 3.7 km/h 90 % 0 mm
02:14 21.4 °C 19.7 °C 1009 hPa East 0.5 km/h 3.2 km/h 90 % 0 mm
02:19 21.4 °C 19.7 °C 1009 hPa East 0.5 km/h 1.9 km/h 90 % 0 mm
02:24 21.3 °C 19.6 °C 1009 hPa East 0.5 km/h 1.9 km/h 90 % 0 mm
02:29 21.3 °C 19.4 °C 1009 hPa East 0.2 km/h 1.9 km/h 89 % 0 mm
02:34 21.3 °C 19.6 °C 1009 hPa East 1 km/h 1.9 km/h 90 % 0 mm
02:39 21.3 °C 19.6 °C 1008.7 hPa East 1.1 km/h 3.7 km/h 90 % 0 mm
02:44 21.3 °C 19.6 °C 1008.7 hPa East 1.6 km/h 3.7 km/h 90 % 0 mm
02:49 21.3 °C 19.6 °C 1008.7 hPa ESE 1.3 km/h 3.7 km/h 90 % 0 mm
02:54 21.3 °C 19.6 °C 1008.7 hPa East 1.4 km/h 3.7 km/h 90 % 0 mm
02:59 21.3 °C 19.7 °C 1008.4 hPa East 1.4 km/h 3.7 km/h 91 % 0 mm
03:04 21.2 °C 19.7 °C 1008 hPa East 2.3 km/h 5.6 km/h 91 % 0 mm
03:09 21.2 °C 19.8 °C 1008 hPa East 3.1 km/h 5.6 km/h 92 % 0 mm
03:14 21.1 °C 19.7 °C 1008 hPa ESE 3.7 km/h 5.6 km/h 92 % 0 mm
03:19 20.9 °C 19.6 °C 1008 hPa ESE 2.4 km/h 5.6 km/h 92 % 0 mm
03:24 20.9 °C 19.7 °C 1008 hPa ESE 3.9 km/h 5.6 km/h 93 % 0.51 mm
03:29 20.8 °C 19.6 °C 1007.7 hPa ESE 3.5 km/h 5.6 km/h 93 % 0.51 mm
03:34 20.8 °C 19.6 °C 1007.7 hPa East 2.3 km/h 5.6 km/h 93 % 0.51 mm
03:40 20.7 °C 19.7 °C 1008 hPa ESE 1.1 km/h 3.7 km/h 94 % 0.51 mm
03:45 20.7 °C 19.7 °C 1008 hPa ESE 0.5 km/h 1.9 km/h 94 % 0.51 mm
03:50 20.7 °C 19.7 °C 1008 hPa ESE 0.5 km/h 3.7 km/h 94 % 0.51 mm
03:55 20.6 °C 19.6 °C 1008 hPa ESE 0.5 km/h 3.7 km/h 94 % 0.51 mm
04:00 20.6 °C 19.6 °C 1008 hPa ESE 1.4 km/h 3.7 km/h 94 % 0.51 mm
04:05 20.6 °C 19.6 °C 1008 hPa ESE 1 km/h 3.7 km/h 94 % 0.51 mm
04:10 20.5 °C 19.5 °C 1008 hPa ESE 0.2 km/h 1.9 km/h 94 % 0.51 mm
04:15 20.5 °C 19.5 °C 1008 hPa ESE 1.9 km/h 3.7 km/h 94 % 0.51 mm
04:20 20.4 °C 19.4 °C 1007.7 hPa East 2.3 km/h 5.6 km/h 94 % 0.25 mm
04:25 20.4 °C 19.6 °C 1008 hPa East 2.1 km/h 3.7 km/h 95 % 0 mm
04:30 20.4 °C 19.4 °C 1007.7 hPa East 2.7 km/h 5.6 km/h 94 % 0 mm
04:35 20.4 °C 19.4 °C 1007.7 hPa SE 2.3 km/h 5.6 km/h 94 % 0 mm
04:40 20.4 °C 19.6 °C 1007.7 hPa ENE 3.2 km/h 5.6 km/h 95 % 0 mm
04:41 20.4 °C 19.6 °C 1007.3 hPa ENE 2.6 km/h 5.6 km/h 95 % 0 mm
04:46 20.4 °C 19.6 °C 1007.3 hPa East 4.2 km/h 5.6 km/h 95 % 0 mm
04:51 20.3 °C 19.5 °C 1007.3 hPa East 2.7 km/h 5.6 km/h 95 % 0 mm
04:56 20.3 °C 19.5 °C 1007.3 hPa ESE 3.1 km/h 5.6 km/h 95 % 0 mm
05:01 20.3 °C 19.4 °C 1007.3 hPa East 3.7 km/h 7.4 km/h 95 % 0 mm
05:06 20.3 °C 19.4 °C 1007.3 hPa East 3.4 km/h 5.6 km/h 95 % 0 mm
05:11 20.3 °C 19.4 °C 1007 hPa East 5 km/h 8 km/h 95 % 0.25 mm
05:16 20.2 °C 19.4 °C 1006.7 hPa East 6.3 km/h 8 km/h 95 % 0.25 mm
05:21 20.2 °C 19.3 °C 1007 hPa East 6.6 km/h 9.3 km/h 95 % 0.25 mm
05:26 20.1 °C 19.3 °C 1007 hPa East 4.8 km/h 9.3 km/h 95 % 0.25 mm
05:31 20.1 °C 19.2 °C 1007 hPa East 3.7 km/h 8 km/h 95 % 0.25 mm
05:36 20 °C 19 °C 1007.3 hPa ESE 3.4 km/h 5.6 km/h 94 % 0.25 mm
05:41 19.9 °C 19.1 °C 1007.3 hPa ESE 3.9 km/h 5.6 km/h 95 % 0.51 mm
05:46 19.9 °C 19.1 °C 1007.3 hPa East 3.9 km/h 5.6 km/h 95 % 0.51 mm
05:51 20 °C 19.2 °C 1007.3 hPa East 2.4 km/h 5.6 km/h 95 % 0.76 mm
05:57 20 °C 19.2 °C 1007.3 hPa East 2.1 km/h 3.7 km/h 95 % 1.02 mm
06:02 20 °C 19.2 °C 1007 hPa East 3.5 km/h 5.6 km/h 95 % 1.02 mm
06:07 20 °C 19.2 °C 1007 hPa East 4.5 km/h 7.4 km/h 95 % 1.27 mm
06:12 19.9 °C 19.3 °C 1007.3 hPa ESE 2.9 km/h 5.6 km/h 96 % 1.27 mm
06:17 19.9 °C 19.3 °C 1007.3 hPa East 3.1 km/h 5.6 km/h 96 % 1.52 mm
06:22 19.9 °C 19.3 °C 1007.3 hPa East 2.9 km/h 5.6 km/h 96 % 1.78 mm
06:27 19.9 °C 19.3 °C 1007 hPa East 3.5 km/h 5.6 km/h 96 % 2.03 mm
06:32 19.9 °C 19.3 °C 1007 hPa East 2.6 km/h 5.6 km/h 96 % 2.29 mm
06:37 19.9 °C 19.3 °C 1007 hPa East 4.7 km/h 8 km/h 96 % 2.29 mm
06:42 19.8 °C 19.2 °C 1006.3 hPa East 4.2 km/h 7.4 km/h 96 % 2.29 mm
06:47 19.8 °C 19.2 °C 1006.7 hPa East 3.2 km/h 5.6 km/h 96 % 2.29 mm
06:53 19.9 °C 19.4 °C 1007 hPa East 1.4 km/h 3.7 km/h 97 % 2.29 mm
06:58 19.9 °C 19.4 °C 1006.7 hPa East 1.6 km/h 3.2 km/h 97 % 2.03 mm
07:03 19.9 °C 19.4 °C 1006.7 hPa East 2.9 km/h 7.4 km/h 97 % 2.03 mm
07:08 19.9 °C 19.4 °C 1006.3 hPa East 3.5 km/h 5.6 km/h 97 % 2.03 mm
07:13 19.9 °C 19.4 °C 1006.7 hPa East 2.9 km/h 5.6 km/h 97 % 1.78 mm
07:18 19.9 °C 19.4 °C 1006.7 hPa East 3.7 km/h 5.6 km/h 97 % 1.52 mm
07:23 19.9 °C 19.4 °C 1006.7 hPa East 4 km/h 7.4 km/h 97 % 1.78 mm
07:28 19.8 °C 19.3 °C 1006.3 hPa East 3.2 km/h 5.6 km/h 97 % 1.52 mm
07:33 19.9 °C 19.4 °C 1006.3 hPa ENE 3.5 km/h 5.6 km/h 97 % 1.52 mm
07:38 19.9 °C 19.4 °C 1006.3 hPa East 4.7 km/h 7.4 km/h 97 % 1.52 mm
07:43 19.9 °C 19.4 °C 1006.3 hPa NE 4.8 km/h 7.4 km/h 97 % 1.52 mm
07:48 19.8 °C 19.3 °C 1006.7 hPa ENE 3.7 km/h 5.6 km/h 97 % 1.52 mm
07:53 19.8 °C 19.3 °C 1006.7 hPa East 4 km/h 5.6 km/h 97 % 1.27 mm
07:58 19.8 °C 19.3 °C 1006.7 hPa ENE 4.7 km/h 7.4 km/h 97 % 1.52 mm
08:03 19.8 °C 19.3 °C 1006.7 hPa East 6.3 km/h 9.3 km/h 97 % 1.27 mm
08:09 19.7 °C 19.2 °C 1006.7 hPa East 5.5 km/h 9.3 km/h 97 % 1.02 mm
08:14 19.7 °C 19.2 °C 1006.3 hPa ENE 5.5 km/h 9.3 km/h 97 % 1.02 mm
08:19 19.7 °C 19.2 °C 1006.3 hPa ENE 6.1 km/h 8 km/h 97 % 0.76 mm
08:24 19.7 °C 19.2 °C 1006.3 hPa East 6.1 km/h 8 km/h 97 % 0.76 mm
08:29 19.7 °C 19.2 °C 1006.3 hPa East 7.2 km/h 9.3 km/h 97 % 0.51 mm
08:34 19.7 °C 19.2 °C 1006.7 hPa East 7.2 km/h 11.1 km/h 97 % 0.51 mm
08:39 19.7 °C 19.2 °C 1006.7 hPa East 7.1 km/h 11.1 km/h 97 % 0.51 mm
08:44 19.7 °C 19.2 °C 1006.3 hPa ENE 7.4 km/h 8 km/h 97 % 0.25 mm
08:49 19.7 °C 19.2 °C 1006.7 hPa East 7.2 km/h 11.1 km/h 97 % 0.25 mm
08:54 19.7 °C 19.2 °C 1006.3 hPa ENE 8.2 km/h 9.3 km/h 97 % 0.25 mm
08:59 19.7 °C 19.2 °C 1006.7 hPa ENE 6.9 km/h 8 km/h 97 % 0 mm
09:04 19.6 °C 19.1 °C 1006.7 hPa ENE 7.4 km/h 9.7 km/h 97 % 0 mm
09:09 19.6 °C 19.1 °C 1006.7 hPa NNE 7.9 km/h 11.1 km/h 97 % 0 mm
09:15 19.5 °C 19 °C 1006.3 hPa East 7.4 km/h 11.1 km/h 97 % 0 mm
09:20 19.4 °C 18.9 °C 1006.3 hPa ENE 9.8 km/h 16.7 km/h 97 % 0.25 mm
09:25 19.4 °C 18.9 °C 1006 hPa ENE 8.5 km/h 13 km/h 97 % 0.25 mm
09:30 19.2 °C 18.7 °C 1006 hPa ENE 15.3 km/h 29.6 km/h 97 % 0.25 mm
09:35 19.1 °C 18.6 °C 1006 hPa East 9.2 km/h 14.8 km/h 97 % 0.25 mm
09:40 19 °C 18.5 °C 1006 hPa ENE 14.2 km/h 18.5 km/h 97 % 0.25 mm
09:45 18.8 °C 18.3 °C 1006 hPa East 12.1 km/h 18.5 km/h 97 % 0.25 mm
09:50 18.7 °C 18.2 °C 1006.3 hPa ENE 10.9 km/h 18.5 km/h 97 % 0.25 mm
09:55 18.5 °C 18 °C 1006.3 hPa ENE 16.6 km/h 25.9 km/h 97 % 0.25 mm
10:00 18.3 °C 17.8 °C 1006.3 hPa East 18.2 km/h 25.9 km/h 97 % 0.25 mm
10:05 18.1 °C 17.4 °C 1006.3 hPa East 14.3 km/h 27.4 km/h 96 % 0.25 mm
10:10 18 °C 17.5 °C 1006.7 hPa East 12.6 km/h 18.5 km/h 97 % 0.25 mm
10:15 18 °C 17.3 °C 1006.7 hPa East 17.5 km/h 31.5 km/h 96 % 0 mm
10:16 17.9 °C 17.3 °C 1006.7 hPa ENE 13.5 km/h 24.1 km/h 96 % 0 mm
10:21 17.8 °C 17.2 °C 1006.3 hPa NE 17.4 km/h 27.8 km/h 96 % 0 mm
10:26 17.8 °C 17.1 °C 1006.7 hPa East 15.6 km/h 20.9 km/h 96 % 0 mm
10:31 17.7 °C 17 °C 1006.7 hPa East 14 km/h 19.3 km/h 96 % 0.25 mm
10:36 17.6 °C 16.9 °C 1006.7 hPa East 13.5 km/h 20.4 km/h 96 % 0.25 mm
10:41 17.6 °C 16.9 °C 1007 hPa ENE 6.8 km/h 25.9 km/h 96 % 0.25 mm
10:46 17.6 °C 16.9 °C 1007 hPa East 10.9 km/h 20.4 km/h 96 % 0.25 mm
10:51 17.6 °C 16.9 °C 1007 hPa ENE 13 km/h 20.4 km/h 96 % 0.25 mm
10:56 17.5 °C 16.8 °C 1007 hPa ENE 12.2 km/h 20.4 km/h 96 % 0.25 mm
11:01 17.5 °C 16.8 °C 1007 hPa ENE 15.1 km/h 25.7 km/h 96 % 0.25 mm
11:07 17.5 °C 16.8 °C 1007 hPa ENE 12.2 km/h 17.7 km/h 96 % 0.25 mm
11:12 17.4 °C 16.9 °C 1007 hPa East 11.9 km/h 20.4 km/h 97 % 0.25 mm
11:17 17.3 °C 16.7 °C 1007 hPa ENE 17.4 km/h 27.8 km/h 96 % 0.51 mm
11:22 17.3 °C 16.7 °C 1007.3 hPa ENE 15.1 km/h 22.2 km/h 96 % 0.51 mm
11:27 17.2 °C 16.6 °C 1007.7 hPa NE 8.9 km/h 22.2 km/h 96 % 0.51 mm
11:32 17.2 °C 16.6 °C 1007.7 hPa NE 8.7 km/h 18.5 km/h 96 % 0.25 mm
11:37 17.2 °C 16.6 °C 1007.3 hPa East 14.8 km/h 25.9 km/h 96 % 0.51 mm
11:42 17.1 °C 16.4 °C 1007.3 hPa East 15.3 km/h 25.9 km/h 96 % 0.51 mm
11:47 17.1 °C 16.4 °C 1007.3 hPa ENE 11.9 km/h 24.1 km/h 96 % 0.76 mm
11:52 17.1 °C 16.6 °C 1007.7 hPa ENE 9.3 km/h 20.4 km/h 97 % 0.76 mm
11:57 17.1 °C 16.6 °C 1007.7 hPa East 13.5 km/h 27.8 km/h 97 % 1.02 mm
12:02 17 °C 16.5 °C 1007.7 hPa NE 10.9 km/h 22.2 km/h 97 % 1.02 mm
12:09 17.1 °C 16.6 °C 1007.3 hPa ENE 11.3 km/h 19.3 km/h 97 % 1.27 mm
12:14 17.1 °C 16.6 °C 1007.3 hPa ENE 8.5 km/h 11.1 km/h 97 % 1.27 mm
12:19 17.1 °C 16.6 °C 1007.3 hPa NE 15 km/h 22.2 km/h 97 % 1.27 mm
12:24 16.9 °C 16.4 °C 1007.3 hPa ENE 9.3 km/h 18.5 km/h 97 % 1.27 mm
12:29 16.9 °C 16.4 °C 1007.3 hPa ENE 10.6 km/h 20.4 km/h 97 % 1.27 mm
12:34 16.9 °C 16.4 °C 1007.3 hPa NNE 6.1 km/h 20.4 km/h 97 % 1.52 mm
12:39 16.8 °C 16.3 °C 1007.7 hPa NNE 12.2 km/h 20.4 km/h 97 % 1.27 mm
12:44 16.7 °C 16.2 °C 1007.7 hPa NE 8.4 km/h 16.7 km/h 97 % 1.52 mm
12:49 16.7 °C 16.2 °C 1007.3 hPa ENE 11.3 km/h 29.6 km/h 97 % 1.27 mm
12:54 16.7 °C 16.2 °C 1007.7 hPa NNW 11.7 km/h 24.1 km/h 97 % 1.52 mm
12:59 16.7 °C 16.2 °C 1007.7 hPa NNE 14.8 km/h 22.2 km/h 97 % 1.27 mm
13:04 16.7 °C 16.2 °C 1007.7 hPa ENE 9.3 km/h 14.8 km/h 97 % 1.52 mm
13:09 16.6 °C 16.1 °C 1008 hPa NE 13.2 km/h 18.5 km/h 97 % 1.27 mm
13:14 16.4 °C 15.8 °C 1008 hPa North 14.3 km/h 27.8 km/h 96 % 1.52 mm
13:19 16.3 °C 15.7 °C 1008 hPa East 12.2 km/h 29.6 km/h 96 % 1.27 mm
13:24 16.3 °C 15.8 °C 1008 hPa NNE 8.7 km/h 16.7 km/h 97 % 1.52 mm
13:29 16.4 °C 15.9 °C 1008 hPa ENE 6.9 km/h 11.3 km/h 97 % 1.52 mm
13:30 16.4 °C 15.9 °C 1008 hPa NNE 7.7 km/h 16.7 km/h 97 % 1.27 mm
13:35 16.4 °C 15.9 °C 1008 hPa NNE 7.2 km/h 14.8 km/h 97 % 1.27 mm
13:40 16.5 °C 16 °C 1008.4 hPa NNE 10 km/h 19.3 km/h 97 % 1.27 mm
13:45 16.4 °C 15.7 °C 1008.7 hPa NNE 10.6 km/h 20.4 km/h 96 % 1.27 mm
13:50 16.4 °C 15.7 °C 1008.4 hPa North 14.5 km/h 24.1 km/h 96 % 1.52 mm
13:55 16.3 °C 15.7 °C 1008.7 hPa North 7.7 km/h 20.4 km/h 96 % 1.27 mm
14:00 16.3 °C 15.7 °C 1008.7 hPa NE 8.4 km/h 18.5 km/h 96 % 1.52 mm
14:05 16.3 °C 15.7 °C 1008.4 hPa North 14.2 km/h 18.5 km/h 96 % 1.27 mm
14:10 16.4 °C 15.7 °C 1008.7 hPa NNW 9.5 km/h 16.1 km/h 96 % 1.27 mm
14:15 16.4 °C 15.7 °C 1008.7 hPa NE 9 km/h 16.7 km/h 96 % 1.27 mm
14:20 16.4 °C 15.7 °C 1008.7 hPa NE 11.9 km/h 18.5 km/h 96 % 1.27 mm
14:25 16.4 °C 15.6 °C 1008.7 hPa NE 7.2 km/h 20.4 km/h 95 % 1.02 mm
14:30 16.5 °C 15.8 °C 1008.7 hPa North 8.4 km/h 18.5 km/h 96 % 1.27 mm
14:31 16.5 °C 15.8 °C 1008.7 hPa North 7.6 km/h 16.7 km/h 96 % 1.27 mm
14:36 16.6 °C 15.9 °C 1009 hPa NNE 6.1 km/h 18.5 km/h 96 % 1.27 mm
14:41 16.6 °C 15.9 °C 1009 hPa North 8.5 km/h 20.4 km/h 96 % 1.27 mm
14:47 16.7 °C 15.9 °C 1008.7 hPa NNE 11.4 km/h 22.2 km/h 95 % 1.27 mm
14:52 16.7 °C 15.9 °C 1009 hPa NNE 9.5 km/h 16.7 km/h 95 % 1.27 mm
14:57 16.8 °C 16 °C 1009 hPa NE 9 km/h 18.5 km/h 95 % 1.27 mm
15:02 16.8 °C 15.9 °C 1009 hPa NNE 7.6 km/h 13 km/h 94 % 1.27 mm
15:07 16.9 °C 15.9 °C 1009 hPa NE 8.5 km/h 18.5 km/h 94 % 1.27 mm
15:12 17.1 °C 16.1 °C 1008.7 hPa ENE 7.9 km/h 20.4 km/h 94 % 1.02 mm
15:17 17.2 °C 16.2 °C 1008.7 hPa NE 8.4 km/h 13 km/h 94 % 1.02 mm
15:22 17.2 °C 16.2 °C 1009 hPa ENE 6.6 km/h 12.9 km/h 94 % 1.27 mm
15:27 17.3 °C 16.3 °C 1009 hPa ENE 7.4 km/h 14.8 km/h 94 % 1.02 mm
15:32 17.3 °C 16.1 °C 1009 hPa NNE 7.9 km/h 14.5 km/h 93 % 1.02 mm
15:37 17.4 °C 16.2 °C 1009 hPa North 8 km/h 16.1 km/h 93 % 0.76 mm
15:42 17.4 °C 16.3 °C 1009 hPa ENE 7.2 km/h 16.7 km/h 93 % 1.02 mm
15:47 17.4 °C 16.3 °C 1009 hPa ENE 6.9 km/h 11.3 km/h 93 % 1.02 mm
15:52 17.5 °C 16.3 °C 1009 hPa East 5.8 km/h 9.3 km/h 93 % 0.76 mm
15:57 17.6 °C 16.4 °C 1009 hPa East 4.8 km/h 7.4 km/h 93 % 0.76 mm
16:02 17.6 °C 16.3 °C 1009.4 hPa ENE 5.5 km/h 11.1 km/h 92 % 0.76 mm
16:07 17.7 °C 16.3 °C 1009.4 hPa ENE 6.1 km/h 14.8 km/h 92 % 0.76 mm
16:12 17.7 °C 16.4 °C 1009.4 hPa NE 5.3 km/h 11.1 km/h 92 % 0.76 mm
16:17 17.8 °C 16.4 °C 1009.4 hPa NE 8.7 km/h 13 km/h 92 % 0.76 mm
16:22 17.8 °C 16.5 °C 1009.4 hPa NNE 5.3 km/h 13 km/h 92 % 0.51 mm
16:28 17.9 °C 16.4 °C 1009.4 hPa NNE 9.3 km/h 14.5 km/h 91 % 0.51 mm
16:33 17.9 °C 16.4 °C 1009.4 hPa NNE 6.1 km/h 16.1 km/h 91 % 0.76 mm
16:38 18 °C 16.7 °C 1009.4 hPa NNE 4.7 km/h 9.7 km/h 92 % 0.76 mm
16:43 18.1 °C 16.7 °C 1009.4 hPa NE 6 km/h 9.3 km/h 92 % 0.51 mm
16:48 18.2 °C 16.7 °C 1009.4 hPa NNE 6.6 km/h 13 km/h 91 % 0.51 mm
16:53 18.2 °C 16.6 °C 1009.4 hPa NNE 4.8 km/h 11.1 km/h 90 % 0.51 mm
16:58 18.3 °C 16.8 °C 1009.4 hPa NNE 4.5 km/h 11.1 km/h 91 % 0.51 mm
17:03 18.3 °C 16.8 °C 1009.4 hPa NE 5.3 km/h 14.8 km/h 91 % 0.51 mm
17:08 18.4 °C 16.7 °C 1009.4 hPa ENE 9.2 km/h 14.8 km/h 90 % 0.51 mm
17:13 18.4 °C 16.8 °C 1009.4 hPa NE 7.1 km/h 13 km/h 90 % 0.51 mm
17:18 18.4 °C 16.6 °C 1009.4 hPa NNE 6.9 km/h 11.1 km/h 89 % 0.51 mm
17:23 18.4 °C 16.6 °C 1009.4 hPa North 7.6 km/h 13 km/h 89 % 0.51 mm
17:28 18.4 °C 16.4 °C 1009.4 hPa East 4.7 km/h 11.1 km/h 88 % 0.51 mm
17:33 18.5 °C 16.7 °C 1009.7 hPa ENE 4.8 km/h 8 km/h 89 % 0.25 mm
17:38 18.5 °C 16.5 °C 1009.4 hPa ENE 5.8 km/h 11.1 km/h 88 % 0.51 mm
17:43 18.6 °C 16.6 °C 1009.7 hPa NE 1.9 km/h 5.6 km/h 88 % 0.51 mm
17:48 18.6 °C 16.3 °C 1009.7 hPa NE 5 km/h 11.1 km/h 87 % 0.51 mm
17:53 18.6 °C 16.3 °C 1009.7 hPa ENE 2.4 km/h 5.6 km/h 87 % 0.51 mm
17:58 18.6 °C 16.6 °C 1009.7 hPa ENE 3.9 km/h 7.4 km/h 88 % 0.51 mm
18:04 18.6 °C 16.6 °C 1009.7 hPa NE 5.5 km/h 7.4 km/h 88 % 0.25 mm
18:08 18.6 °C 16.6 °C 1010 hPa ENE 5.1 km/h 5.6 km/h 88 % 0.25 mm
18:13 18.6 °C 16.3 °C 1010 hPa NE 3.4 km/h 5.6 km/h 87 % 0.51 mm
18:18 18.5 °C 16.3 °C 1010 hPa NNE 3.2 km/h 11.1 km/h 87 % 0.51 mm
18:24 18.4 °C 16.2 °C 1010 hPa ENE 5.6 km/h 6.4 km/h 87 % 0.51 mm
18:29 18.4 °C 16.1 °C 1010 hPa ENE 6.1 km/h 14.8 km/h 86 % 0.51 mm
18:34 18.4 °C 16.1 °C 1010 hPa NE 3.1 km/h 9.3 km/h 86 % 0.51 mm
18:39 18.4 °C 16.2 °C 1010.4 hPa NNE 6.4 km/h 11.1 km/h 87 % 0.25 mm
18:44 18.3 °C 16.1 °C 1010.7 hPa North 8 km/h 11.1 km/h 87 % 0.25 mm
18:49 18.3 °C 16.1 °C 1010.4 hPa NNE 5.8 km/h 8 km/h 87 % 0.25 mm
18:54 18.3 °C 16.1 °C 1010.4 hPa NE 3.1 km/h 7.4 km/h 87 % 0.25 mm
18:59 18.3 °C 16.1 °C 1010.7 hPa NE 6 km/h 9.7 km/h 87 % 0.51 mm
19:04 18.3 °C 16.3 °C 1010.4 hPa NNE 1.4 km/h 3.7 km/h 88 % 0.51 mm
19:09 18.2 °C 15.9 °C 1010.4 hPa NE 3.7 km/h 11.1 km/h 87 % 0.51 mm
19:14 18.1 °C 15.9 °C 1010.7 hPa NE 2.1 km/h 6.4 km/h 87 % 0.25 mm
19:19 18.1 °C 16.1 °C 1010.7 hPa NNE 3.7 km/h 5.6 km/h 88 % 0.25 mm
19:24 18.1 °C 16.1 °C 1010.7 hPa NNE 1.1 km/h 7.4 km/h 88 % 0.25 mm
19:29 18 °C 16 °C 1010.7 hPa NE 5 km/h 9.7 km/h 88 % 0.25 mm
19:34 17.9 °C 15.9 °C 1010.7 hPa ENE 8 km/h 14.8 km/h 88 % 0.25 mm
19:39 17.9 °C 15.7 °C 1010.7 hPa ENE 4.7 km/h 13 km/h 87 % 0.25 mm
19:45 17.8 °C 15.7 °C 1011.1 hPa ENE 5.3 km/h 11.1 km/h 87 % 0.51 mm
19:50 17.8 °C 15.8 °C 1011.1 hPa NE 3.5 km/h 7.4 km/h 88 % 0.51 mm
19:55 17.8 °C 15.8 °C 1011.1 hPa NE 3.1 km/h 11.1 km/h 88 % 0.51 mm
20:00 17.7 °C 15.7 °C 1011.1 hPa NE 3.4 km/h 7.4 km/h 88 % 0.25 mm
20:05 17.7 °C 15.7 °C 1010.7 hPa East 6.1 km/h 9.3 km/h 88 % 0.25 mm
20:10 17.6 °C 15.4 °C 1011.1 hPa NE 5 km/h 13 km/h 87 % 0.25 mm
20:15 17.6 °C 15.6 °C 1010.7 hPa NE 3.5 km/h 11.1 km/h 88 % 0.25 mm
20:20 17.6 °C 15.6 °C 1010.7 hPa NE 11.1 km/h 18.5 km/h 88 % 0.25 mm
20:25 17.5 °C 15.5 °C 1010.7 hPa ENE 6 km/h 11.1 km/h 88 % 0.25 mm
20:30 17.5 °C 15.5 °C 1011.1 hPa ENE 6.3 km/h 14.8 km/h 88 % 0.25 mm
20:33 17.5 °C 15.3 °C 1011.1 hPa ENE 5.3 km/h 12.9 km/h 87 % 0.25 mm
20:38 17.4 °C 15.3 °C 1010.7 hPa NE 9.5 km/h 16.7 km/h 87 % 0.51 mm
20:43 17.4 °C 15.4 °C 1010.7 hPa East 6 km/h 14.8 km/h 88 % 0.51 mm
20:48 17.4 °C 15.4 °C 1010.7 hPa ENE 11.4 km/h 14.8 km/h 88 % 0.25 mm
20:53 17.4 °C 15.4 °C 1010.7 hPa East 6.9 km/h 13 km/h 88 % 0.25 mm
20:58 17.3 °C 15.2 °C 1010.7 hPa ENE 6.8 km/h 13 km/h 87 % 0.25 mm
21:03 17.3 °C 15.3 °C 1011.1 hPa NNE 9.3 km/h 13 km/h 88 % 0.25 mm
21:08 17.3 °C 15.3 °C 1011.1 hPa NE 5 km/h 9.3 km/h 88 % 0.25 mm
21:13 17.3 °C 15.3 °C 1011.1 hPa ENE 7.7 km/h 11.1 km/h 88 % 0.25 mm
21:18 17.2 °C 15.2 °C 1011.1 hPa NE 4.3 km/h 14.8 km/h 88 % 0.25 mm
21:23 17.2 °C 15.2 °C 1011.1 hPa NE 7.7 km/h 11.1 km/h 88 % 0.25 mm
21:28 17.2 °C 15.2 °C 1011.1 hPa NE 9 km/h 13 km/h 88 % 0.25 mm
21:33 17.2 °C 15.2 °C 1011.1 hPa NE 8.4 km/h 13 km/h 88 % 0.25 mm
21:38 17.1 °C 15.1 °C 1011.4 hPa ENE 5.6 km/h 11.1 km/h 88 % 0 mm
21:43 17.1 °C 15.1 °C 1011.4 hPa ENE 6.9 km/h 9.3 km/h 88 % 0.25 mm
21:48 17.1 °C 15.1 °C 1011.4 hPa ENE 4.3 km/h 13 km/h 88 % 0.25 mm
21:53 17.1 °C 15.3 °C 1011.7 hPa NE 8.9 km/h 12.9 km/h 89 % 0.25 mm
21:58 17.2 °C 15.3 °C 1011.7 hPa ENE 7.4 km/h 13 km/h 89 % 0.25 mm
22:03 17.2 °C 15.3 °C 1011.7 hPa ENE 8.9 km/h 12.9 km/h 89 % 0.25 mm
22:08 17.2 °C 15.4 °C 1012.1 hPa ENE 5 km/h 7.4 km/h 89 % 0.25 mm
22:13 17.2 °C 15.4 °C 1011.7 hPa ENE 6.1 km/h 16.7 km/h 89 % 0.25 mm
22:18 17.3 °C 15.6 °C 1012.1 hPa East 3.2 km/h 5.6 km/h 90 % 0.25 mm
22:23 17.3 °C 15.4 °C 1012.1 hPa ENE 11.6 km/h 13 km/h 89 % 0.25 mm
22:29 17.3 °C 15.4 °C 1012.1 hPa ENE 4.5 km/h 14.8 km/h 89 % 0.25 mm
22:34 17.3 °C 15.4 °C 1012.1 hPa ENE 8.9 km/h 14.8 km/h 89 % 0.25 mm
22:39 17.3 °C 15.4 °C 1012.1 hPa East 9.2 km/h 18.5 km/h 89 % 0.25 mm
22:44 17.3 °C 15.3 °C 1011.7 hPa ENE 9.2 km/h 16.7 km/h 88 % 0 mm
22:49 17.3 °C 15.5 °C 1012.1 hPa ENE 7.9 km/h 14.8 km/h 89 % 0 mm
22:54 17.3 °C 15.5 °C 1012.1 hPa ENE 7.1 km/h 16.7 km/h 89 % 0.25 mm
22:59 17.3 °C 15.4 °C 1012.1 hPa ENE 8.9 km/h 14.5 km/h 89 % 0.25 mm
23:04 17.3 °C 15.3 °C 1012.1 hPa East 11.4 km/h 18.5 km/h 88 % 0.25 mm
23:09 17.3 °C 15.5 °C 1012.1 hPa ENE 8.5 km/h 11.1 km/h 89 % 0.25 mm
23:14 17.3 °C 15.5 °C 1012.1 hPa East 6.8 km/h 9.3 km/h 89 % 0.25 mm
23:19 17.3 °C 15.5 °C 1012.4 hPa ENE 7.1 km/h 13 km/h 89 % 0.25 mm
23:24 17.3 °C 15.3 °C 1012.4 hPa East 4.8 km/h 13 km/h 88 % 0.25 mm
23:29 17.3 °C 15.5 °C 1012.4 hPa ENE 3.9 km/h 7.4 km/h 89 % 0.25 mm
23:35 17.3 °C 15.5 °C 1012.8 hPa NE 6.4 km/h 11.1 km/h 89 % 0.25 mm
23:40 17.4 °C 15.6 °C 1012.8 hPa ENE 6.9 km/h 9.3 km/h 89 % 0.25 mm
23:45 17.4 °C 15.6 °C 1012.8 hPa ENE 6.1 km/h 13 km/h 89 % 0.25 mm
23:50 17.4 °C 15.6 °C 1013.1 hPa NE 3.7 km/h 14.8 km/h 89 % 0.25 mm
23:55 17.4 °C 15.6 °C 1012.8 hPa ENE 5.1 km/h 14.8 km/h 89 % 0 mm
Crab Meadow Weather
Compliments of Weather Underground - 3 mb

Script developed by  Jim McMurry - jmcmurry@mwt.net Adapted for the template by  Wim van der Kuil - Leuven-Template.eu

Recycling: Out of every $10 spent buying things, $1 (10%) goes for packaging that is thrown away. Packaging represents about 65% of household trash.